createdAt,value
2019-04-04T00:01:38.650Z,11.90
2019-04-04T00:04:07.704Z,11.80
2019-04-04T00:06:57.708Z,11.80
2019-04-04T00:09:37.915Z,11.70
2019-04-04T00:12:18.564Z,11.80
2019-04-04T00:14:59.373Z,11.70
2019-04-04T00:17:40.012Z,11.70
2019-04-04T00:20:19.274Z,11.60
2019-04-04T00:23:07.538Z,11.70
2019-04-04T00:25:57.162Z,11.60
2019-04-04T00:28:46.074Z,11.60
2019-04-04T00:31:35.174Z,11.60
2019-04-04T00:37:17.074Z,11.60
2019-04-04T00:40:05.500Z,11.50
2019-04-04T00:42:53.544Z,11.50
2019-04-04T00:45:41.594Z,11.50
2019-04-04T00:48:29.629Z,11.50
2019-04-04T00:51:17.714Z,11.40
2019-04-04T00:54:05.821Z,11.40
2019-04-04T00:56:53.918Z,11.40
2019-04-04T00:59:41.939Z,11.30
2019-04-04T01:02:29.993Z,11.30
2019-04-04T01:05:18.017Z,11.40
2019-04-04T01:07:59.045Z,11.40
2019-04-04T01:10:39.703Z,11.20
2019-04-04T01:13:21.231Z,11.20
2019-04-04T01:16:03.331Z,11.10
2019-04-04T01:18:44.387Z,11.10
2019-04-04T01:24:24.143Z,11.00
2019-04-04T01:27:06.399Z,10.90
2019-04-04T01:29:47.693Z,10.90
2019-04-04T01:32:28.481Z,10.90
2019-04-04T01:35:08.994Z,10.90
2019-04-04T01:37:50.041Z,10.90
2019-04-04T01:40:32.910Z,10.80
2019-04-04T01:43:13.787Z,10.80
2019-04-04T01:45:54.699Z,10.70
2019-04-04T01:48:35.427Z,10.70
2019-04-04T01:51:16.333Z,10.70
2019-04-04T01:53:57.173Z,10.70
2019-04-04T01:56:38.431Z,10.70
2019-04-04T01:59:19.317Z,10.60
2019-04-04T02:01:59.916Z,10.60
2019-04-04T02:04:40.883Z,10.50
2019-04-04T02:07:21.571Z,10.40
2019-04-04T02:10:03.252Z,10.20
2019-04-04T02:12:44.585Z,10.30
2019-04-04T02:15:25.161Z,10.20
2019-04-04T02:18:05.857Z,10.20
2019-04-04T02:20:46.657Z,10.20
2019-04-04T02:23:27.374Z,10.20
2019-04-04T02:26:08.068Z,10.20
2019-04-04T02:28:48.983Z,10.20
2019-04-04T02:34:16.612Z,10.10
2019-04-04T02:36:58.079Z,10.00
2019-04-04T02:39:39.315Z,9.90
2019-04-04T02:42:22.289Z,9.80
2019-04-04T02:45:05.637Z,9.90
2019-04-04T02:47:50.251Z,9.80
2019-04-04T02:50:28.623Z,9.70
2019-04-04T02:53:09.678Z,9.70
2019-04-04T02:55:50.039Z,9.70
2019-04-04T02:58:30.940Z,9.70
2019-04-04T03:01:11.813Z,9.60
2019-04-04T03:03:52.698Z,9.60
2019-04-04T03:06:33.399Z,9.60
2019-04-04T03:09:14.139Z,9.40
2019-04-04T03:11:55.404Z,9.40
2019-04-04T03:17:18.777Z,9.40
2019-04-04T03:19:59.942Z,9.40
2019-04-04T03:22:40.877Z,9.30
2019-04-04T03:28:03.519Z,9.30
2019-04-04T03:30:52.803Z,9.10
2019-04-04T03:33:31.510Z,9.10
2019-04-04T03:36:11.063Z,9.00
2019-04-04T03:38:50.220Z,9.00
2019-04-04T03:41:38.292Z,8.90
2019-04-04T03:44:26.455Z,8.80
2019-04-04T03:47:14.607Z,8.90
2019-04-04T03:50:02.729Z,8.90
2019-04-04T03:52:50.868Z,8.80
2019-04-04T03:55:38.975Z,8.80
2019-04-04T03:58:27.900Z,8.80
2019-04-04T04:01:16.873Z,8.80
2019-04-04T04:04:05.281Z,8.60
2019-04-04T04:06:53.331Z,8.80
2019-04-04T04:09:34.542Z,8.70
2019-04-04T04:12:15.277Z,8.60
2019-04-04T04:14:56.146Z,8.80
2019-04-04T04:17:36.916Z,8.70
2019-04-04T04:20:17.451Z,8.70
2019-04-04T04:22:58.223Z,8.70
2019-04-04T04:25:38.983Z,8.70
2019-04-04T04:28:20.852Z,8.60
2019-04-04T04:31:01.697Z,8.70
2019-04-04T04:33:42.732Z,8.70
2019-04-04T04:36:24.939Z,8.80
2019-04-04T04:39:06.449Z,8.80
2019-04-04T04:41:46.922Z,8.80
2019-04-04T04:44:27.707Z,8.80
2019-04-04T04:49:51.139Z,8.60
2019-04-04T04:52:31.906Z,8.60
2019-04-04T04:55:12.443Z,8.50
2019-04-04T04:57:56.100Z,8.70
2019-04-04T05:03:22.185Z,8.60
2019-04-04T05:08:49.822Z,8.70
2019-04-04T05:11:35.432Z,8.70
2019-04-04T05:14:16.140Z,8.90
2019-04-04T05:16:57.524Z,9.00
2019-04-04T05:19:38.175Z,9.20
2019-04-04T05:22:18.681Z,9.10
2019-04-04T05:25:07.845Z,9.20
2019-04-04T05:27:42.454Z,9.20
2019-04-04T05:30:23.147Z,9.20
2019-04-04T05:33:03.946Z,9.30
2019-04-04T05:35:45.534Z,9.40
2019-04-04T05:38:26.112Z,9.40
2019-04-04T05:41:06.860Z,9.40
2019-04-04T05:43:47.783Z,9.40
2019-04-04T05:46:29.273Z,9.20
2019-04-04T05:51:51.939Z,9.30
2019-04-04T05:54:33.256Z,9.30
2019-04-04T05:57:13.733Z,9.40
2019-04-04T05:59:56.079Z,9.40
2019-04-04T06:02:37.015Z,9.50
2019-04-04T06:05:18.484Z,9.50
2019-04-04T06:08:00.079Z,9.60
2019-04-04T06:10:41.167Z,9.70
2019-04-04T06:13:22.515Z,9.80
2019-04-04T06:16:04.219Z,9.70
2019-04-04T06:18:48.988Z,9.80
2019-04-04T06:21:28.572Z,9.90
2019-04-04T06:23:57.565Z,9.90
2019-04-04T06:26:26.555Z,10.00
2019-04-04T06:29:15.161Z,10.10
2019-04-04T06:32:04.757Z,10.20
2019-04-04T06:34:52.861Z,10.20
2019-04-04T06:37:41.083Z,10.40
2019-04-04T06:40:30.235Z,10.50
2019-04-04T06:43:18.947Z,10.60
2019-04-04T06:46:07.345Z,10.70
2019-04-04T06:48:55.474Z,10.80
2019-04-04T06:51:46.128Z,11.10
2019-04-04T06:54:33.483Z,11.10
2019-04-04T06:57:21.884Z,11.20
2019-04-04T07:00:10.251Z,11.30
2019-04-04T07:02:58.435Z,11.40
2019-04-04T07:05:46.614Z,11.50
2019-04-04T07:08:34.735Z,11.70
2019-04-04T07:11:21.066Z,11.80
2019-04-04T07:13:59.191Z,12.00
2019-04-04T07:16:28.821Z,12.10
2019-04-04T07:19:16.989Z,12.20
2019-04-04T07:22:05.161Z,12.30
2019-04-04T07:24:34.145Z,12.50
2019-04-04T07:27:03.199Z,12.70
2019-04-04T07:29:32.175Z,12.80
2019-04-04T07:32:20.305Z,12.90
2019-04-04T07:35:08.463Z,12.90
2019-04-04T07:37:58.296Z,13.00
2019-04-04T07:40:46.395Z,13.10
2019-04-04T07:43:34.447Z,13.20
2019-04-04T07:46:22.587Z,13.30
2019-04-04T07:49:10.745Z,13.40
2019-04-04T07:52:00.100Z,13.50
2019-04-04T07:54:48.667Z,13.70
2019-04-04T08:33:11.615Z,14.40
2019-04-04T08:39:06.793Z,16.90
2019-04-04T08:41:47.521Z,19.00
2019-04-04T08:44:28.068Z,19.60
2019-04-04T08:47:08.971Z,20.10
2019-04-04T08:49:50.355Z,20.90
2019-04-04T08:52:31.215Z,21.30
2019-04-04T08:55:12.352Z,21.90
2019-04-04T08:57:52.934Z,21.80
2019-04-04T09:00:33.494Z,21.40
2019-04-04T09:03:14.209Z,21.80
2019-04-04T09:05:55.004Z,22.30
2019-04-04T09:08:36.235Z,22.10
2019-04-04T09:11:17.554Z,22.40
2019-04-04T09:13:58.135Z,22.50
2019-04-04T09:19:37.868Z,23.50
2019-04-04T09:22:19.202Z,23.80
2019-04-04T09:27:59.276Z,24.40
2019-04-04T09:30:39.734Z,25.20
2019-04-04T09:33:21.073Z,25.00
2019-04-04T09:36:01.964Z,24.50
2019-04-04T09:38:42.388Z,24.30
2019-04-04T09:41:23.781Z,24.90
2019-04-04T09:47:05.551Z,25.00
2019-04-04T09:49:45.555Z,24.90
2019-04-04T09:52:26.898Z,25.10
2019-04-04T09:55:07.883Z,25.30
2019-04-04T09:57:49.262Z,25.30
2019-04-04T10:00:30.000Z,25.40
2019-04-04T10:03:11.288Z,25.20
2019-04-04T10:05:52.680Z,24.70
2019-04-04T10:08:33.922Z,24.10
2019-04-04T10:11:15.255Z,23.80
2019-04-04T10:13:56.016Z,24.00
2019-04-04T10:16:36.876Z,24.80
2019-04-04T10:19:17.675Z,24.40
2019-04-04T10:21:58.278Z,24.90
2019-04-04T10:27:51.715Z,25.10
2019-04-04T10:30:33.082Z,25.40
2019-04-04T10:33:02.106Z,24.80
2019-04-04T10:35:50.294Z,24.70
2019-04-04T10:38:38.459Z,24.50
2019-04-04T10:41:26.570Z,24.80
2019-04-04T10:44:14.726Z,24.70
2019-04-04T10:49:50.433Z,25.10
2019-04-04T10:52:38.660Z,25.20
2019-04-04T11:01:02.274Z,26.60
2019-04-04T11:03:50.392Z,26.80
2019-04-04T11:06:38.529Z,26.50
2019-04-04T11:09:47.766Z,26.40
2019-04-04T11:12:28.768Z,26.70
2019-04-04T11:15:09.415Z,26.50
2019-04-04T11:17:49.951Z,26.60
2019-04-04T11:20:30.520Z,26.80
2019-04-04T11:23:11.876Z,26.80
2019-04-04T11:25:52.527Z,26.70
2019-04-04T11:28:32.949Z,26.30
2019-04-04T11:31:14.297Z,26.20
2019-04-04T11:33:54.849Z,26.30
2019-04-04T11:36:35.437Z,26.50
2019-04-04T11:39:15.967Z,26.40
2019-04-04T11:41:57.281Z,26.10
2019-04-04T11:44:38.123Z,26.10
2019-04-04T11:47:19.069Z,26.40
2019-04-04T11:49:59.734Z,26.00
2019-04-04T11:52:40.327Z,25.70
2019-04-04T11:55:19.525Z,25.70
2019-04-04T11:58:00.168Z,25.60
2019-04-04T12:00:43.141Z,25.10
2019-04-04T12:03:23.889Z,24.40
2019-04-04T12:06:04.516Z,24.30
2019-04-04T12:08:45.219Z,24.10
2019-04-04T12:11:25.646Z,24.40
2019-04-04T12:14:06.523Z,24.40
2019-04-04T12:16:47.727Z,24.80
2019-04-04T12:19:29.119Z,25.10
2019-04-04T12:22:11.852Z,25.80
2019-04-04T12:24:52.903Z,26.70
2019-04-04T12:27:33.977Z,27.00
2019-04-04T12:30:15.289Z,27.30
2019-04-04T12:32:56.571Z,27.10
2019-04-04T12:35:37.211Z,27.40
2019-04-04T12:38:17.943Z,27.20
2019-04-04T12:40:58.660Z,27.60
2019-04-04T12:43:39.068Z,28.00
2019-04-04T12:46:20.096Z,28.30
2019-04-04T12:49:00.779Z,28.40
2019-04-04T12:51:41.441Z,28.20
2019-04-04T12:54:22.327Z,27.70
2019-04-04T12:57:03.062Z,27.50
2019-04-04T12:59:43.859Z,28.00
2019-04-04T13:02:24.630Z,28.30
2019-04-04T13:05:05.403Z,28.00
2019-04-04T13:07:46.169Z,28.10
2019-04-04T13:10:32.866Z,28.40
2019-04-04T13:13:09.862Z,28.40
2019-04-04T13:15:50.447Z,28.80
2019-04-04T13:18:31.473Z,28.70
2019-04-04T13:21:12.765Z,29.10
2019-04-04T13:23:53.385Z,29.20
2019-04-04T13:26:34.246Z,28.80
2019-04-04T13:29:15.054Z,28.80
2019-04-04T13:31:55.840Z,29.00
2019-04-04T13:34:36.736Z,29.00
2019-04-04T13:37:17.516Z,29.00
2019-04-04T13:39:58.392Z,29.10
2019-04-04T13:42:39.803Z,28.50
2019-04-04T13:45:24.886Z,28.70
2019-04-04T13:48:04.167Z,28.80
2019-04-04T13:50:52.420Z,28.60
2019-04-04T13:56:50.265Z,28.40
2019-04-04T13:59:38.609Z,27.90
2019-04-04T14:02:27.011Z,28.10
2019-04-04T14:05:15.094Z,28.30
2019-04-04T14:08:03.233Z,28.20
2019-04-04T14:10:57.279Z,27.90
2019-04-04T14:13:27.144Z,27.80
2019-04-04T14:16:08.079Z,27.80
2019-04-04T14:18:49.423Z,27.40
2019-04-04T14:21:30.429Z,27.40
2019-04-04T14:24:13.744Z,27.50
2019-04-04T14:26:53.902Z,27.70
2019-04-04T14:29:34.856Z,27.50
2019-04-04T14:32:15.537Z,27.70
2019-04-04T14:34:56.267Z,27.80
2019-04-04T14:37:37.228Z,27.80
2019-04-04T14:40:18.199Z,27.70
2019-04-04T14:42:59.528Z,27.90
2019-04-04T14:45:40.255Z,27.90
2019-04-04T14:48:21.115Z,27.30
2019-04-04T14:51:02.463Z,26.70
2019-04-04T14:53:43.325Z,26.40
2019-04-04T14:56:24.212Z,26.00
2019-04-04T14:59:05.375Z,25.80
2019-04-04T15:01:45.890Z,26.00
2019-04-04T15:04:26.593Z,26.00
2019-04-04T15:07:07.507Z,25.90
2019-04-04T15:09:48.395Z,25.80
2019-04-04T15:12:29.221Z,26.00
2019-04-04T15:15:10.223Z,26.30
2019-04-04T15:17:50.847Z,26.20
2019-04-04T15:20:32.009Z,26.20
2019-04-04T15:23:13.023Z,26.40
2019-04-04T15:25:54.052Z,26.30
2019-04-04T15:28:34.536Z,26.20
2019-04-04T15:31:13.779Z,26.10
2019-04-04T15:34:01.909Z,25.50
2019-04-04T15:36:50.066Z,25.20
2019-04-04T15:39:38.188Z,24.90
2019-04-04T15:42:26.376Z,24.50
2019-04-04T15:45:14.503Z,24.10
2019-04-04T15:48:04.303Z,24.10
2019-04-04T15:50:52.470Z,24.00
2019-04-04T15:53:40.553Z,24.00
2019-04-04T15:56:28.731Z,23.60
2019-04-04T15:59:16.852Z,23.40
2019-04-04T16:02:04.926Z,23.30
2019-04-04T16:04:53.033Z,23.30
2019-04-04T16:07:41.121Z,23.20
2019-04-04T16:10:29.253Z,23.30
2019-04-04T16:13:09.711Z,23.30
2019-04-04T16:15:50.656Z,23.20
2019-04-04T16:18:31.496Z,23.30
2019-04-04T16:21:12.496Z,23.50
2019-04-04T16:23:53.679Z,23.50
2019-04-04T16:26:34.236Z,23.30
2019-04-04T16:29:14.604Z,23.10
2019-04-04T16:31:55.445Z,22.70
2019-04-04T16:34:36.611Z,22.50
2019-04-04T16:37:17.817Z,22.40
2019-04-04T16:40:08.253Z,22.10
2019-04-04T16:42:41.195Z,21.90
2019-04-04T17:18:19.631Z,20.40
2019-04-04T17:21:00.107Z,20.30
2019-04-04T17:23:40.673Z,20.10
2019-04-04T17:26:21.868Z,19.90
2019-04-04T17:29:02.339Z,19.70
2019-04-04T17:31:43.354Z,19.50
2019-04-04T17:34:24.049Z,19.40
2019-04-04T17:37:04.833Z,19.20
2019-04-04T17:39:45.647Z,19.10
2019-04-04T17:42:30.764Z,19.00
2019-04-04T17:45:09.395Z,18.90
2019-04-04T17:47:50.107Z,18.80
2019-04-04T17:50:31.449Z,18.80
2019-04-04T17:53:12.231Z,18.70
2019-04-04T17:55:54.889Z,18.70
2019-04-04T17:58:35.733Z,18.60
2019-04-04T18:03:54.778Z,18.50
2019-04-04T18:06:23.736Z,18.30
2019-04-04T18:08:52.807Z,18.10
2019-04-04T18:11:34.645Z,18.20
2019-04-04T18:14:03.687Z,18.10
2019-04-04T18:16:32.752Z,18.10
2019-04-04T18:19:01.719Z,17.90
2019-04-04T18:21:30.585Z,17.90
2019-04-04T18:23:59.587Z,17.80
2019-04-04T18:26:28.476Z,17.70
2019-04-04T18:28:57.409Z,17.70
2019-04-04T18:31:26.231Z,17.70
2019-04-04T18:33:55.234Z,17.50
2019-04-04T18:36:43.708Z,17.40
2019-04-04T18:41:41.279Z,17.20
2019-04-04T18:44:10.317Z,17.20
2019-04-04T18:46:39.334Z,17.10
2019-04-04T18:49:08.175Z,17.00
2019-04-04T18:51:37.816Z,16.90
2019-04-04T18:54:07.671Z,16.80
2019-04-04T18:56:36.568Z,16.80
2019-04-04T18:59:05.574Z,16.70
2019-04-04T19:01:34.416Z,16.60
2019-04-04T19:04:03.356Z,16.60
2019-04-04T19:06:32.334Z,16.60
2019-04-04T19:09:01.245Z,16.50
2019-04-04T19:11:30.082Z,16.50
2019-04-04T19:13:59.040Z,16.40
2019-04-04T19:16:27.969Z,16.40
2019-04-04T19:18:56.979Z,16.30
2019-04-04T19:21:25.946Z,16.30
2019-04-04T19:23:55.042Z,16.20
2019-04-04T19:26:24.048Z,16.20
2019-04-04T19:28:53.348Z,16.10
2019-04-04T19:31:22.406Z,16.10
2019-04-04T19:33:51.245Z,16.00
2019-04-04T19:36:41.790Z,16.00
2019-04-04T19:39:16.369Z,15.90
2019-04-04T19:41:45.436Z,15.90
2019-04-04T19:44:14.470Z,15.80
2019-04-04T19:46:43.480Z,15.70
2019-04-04T19:49:31.526Z,15.60
2019-04-04T19:52:19.671Z,15.60
2019-04-04T19:54:48.577Z,15.60
2019-04-04T19:57:36.691Z,15.60
2019-04-04T20:00:46.048Z,15.60
2019-04-04T20:03:14.884Z,15.60
2019-04-04T20:05:44.655Z,15.50
2019-04-04T20:08:32.932Z,15.40
2019-04-04T20:13:56.594Z,15.40
2019-04-04T20:16:25.429Z,15.40
2019-04-04T20:18:54.264Z,15.40
2019-04-04T20:21:23.125Z,15.40
2019-04-04T20:23:52.024Z,15.30
2019-04-04T20:26:40.114Z,15.40
2019-04-04T20:29:28.156Z,15.40
2019-04-04T20:31:56.988Z,15.40
2019-04-04T20:34:26.051Z,15.40
2019-04-04T20:36:54.949Z,15.30
2019-04-04T20:39:23.881Z,15.20
2019-04-04T20:41:52.750Z,15.20
2019-04-04T20:44:40.822Z,15.10
2019-04-04T20:47:28.954Z,15.10
2019-04-04T20:50:17.067Z,15.00
2019-04-04T20:53:05.337Z,14.90
2019-04-04T20:55:34.522Z,14.90
2019-04-04T20:58:03.595Z,14.90
2019-04-04T21:00:51.647Z,14.90
2019-04-04T21:03:20.619Z,14.80
2019-04-04T21:06:08.691Z,14.80
2019-04-04T21:08:56.844Z,14.80
2019-04-04T21:11:37.562Z,14.80
2019-04-04T21:14:18.120Z,14.80
2019-04-04T21:16:58.600Z,14.80
2019-04-04T21:19:27.465Z,14.70
2019-04-04T21:21:56.295Z,14.60
2019-04-04T21:24:44.412Z,14.60
2019-04-04T21:27:32.613Z,14.60
2019-04-04T21:30:20.808Z,14.50
2019-04-04T21:33:08.852Z,14.50
2019-04-04T21:35:37.807Z,14.50
2019-04-04T21:38:25.909Z,14.50
2019-04-04T21:43:48.249Z,14.60
2019-04-04T21:46:17.391Z,14.60
2019-04-04T21:48:46.249Z,14.60
2019-04-04T21:51:15.073Z,14.60
2019-04-04T21:53:44.054Z,14.70
2019-04-04T21:56:32.117Z,14.70
2019-04-04T21:59:20.250Z,14.70
2019-04-04T22:07:58.883Z,14.60
2019-04-04T22:10:47.028Z,14.50
2019-04-04T22:13:27.708Z,14.50
2019-04-04T22:16:08.427Z,14.40
2019-04-04T22:18:49.185Z,14.40
2019-04-04T22:21:30.070Z,14.40
2019-04-04T22:24:10.945Z,14.40
2019-04-04T22:26:51.701Z,14.30
2019-04-04T22:29:32.557Z,14.20
2019-04-04T22:32:13.038Z,14.10
2019-04-04T22:34:53.939Z,14.10
2019-04-04T22:37:34.803Z,13.90
2019-04-04T22:43:28.692Z,13.80
2019-04-04T22:46:09.304Z,13.60
2019-04-04T22:48:50.408Z,13.60
2019-04-04T22:51:31.205Z,13.50
2019-04-04T22:54:11.955Z,13.40
2019-04-04T22:56:53.234Z,13.40
2019-04-04T22:59:34.337Z,13.30
2019-04-04T23:02:15.138Z,13.30
2019-04-04T23:04:55.748Z,13.20
2019-04-04T23:07:36.489Z,13.10
2019-04-04T23:13:29.878Z,13.00
2019-04-04T23:16:10.599Z,12.90
2019-04-04T23:18:51.855Z,12.90
2019-04-04T23:21:32.793Z,12.80
2019-04-04T23:24:13.213Z,12.80
2019-04-04T23:26:53.925Z,12.80
2019-04-04T23:29:35.100Z,12.70
2019-04-04T23:32:15.606Z,12.70
2019-04-04T23:34:56.171Z,12.70
2019-04-04T23:37:36.799Z,12.70
2019-04-04T23:40:17.527Z,12.60
2019-04-04T23:42:58.762Z,12.60
2019-04-04T23:45:39.286Z,12.60
2019-04-04T23:48:19.936Z,12.60
2019-04-04T23:51:00.660Z,12.50
2019-04-04T23:53:41.553Z,12.50
2019-04-04T23:56:22.349Z,12.40
2019-04-04T23:59:03.146Z,12.30
